Terminal Aerodrome Forecast
Issued by NWS

Home | Current Version | Previous Version | Text Only | Print | Product List | Glossary On
Versions: 1 2 3 4 5 6 7 8 9 10 11 12 13 14
000
FTUS45 KRIW 232300
TAFCPR
TAF
KCPR 232322Z 2400/2424 23014G20KT P6SM SKC
     FM240200 24011KT P6SM SCT080
     FM241700 23015G25KT P6SM SCT080=

USA.gov is the U.S. government's official web portal to all federal, state and local government web resources and services.